createdAt,value
2024-01-28T00:00:58.988Z,100752.84
2024-01-28T00:06:06.702Z,100760.00
2024-01-28T00:11:11.996Z,100751.56
2024-01-28T00:16:20.725Z,100753.75
2024-01-28T00:21:26.166Z,100744.63
2024-01-28T00:26:31.580Z,100749.06
2024-01-28T00:31:39.781Z,100747.25
2024-01-28T00:36:44.963Z,100749.94
2024-01-28T00:41:50.316Z,100748.69
2024-01-28T00:46:59.116Z,100745.66
2024-01-28T00:52:04.523Z,100744.78
2024-01-28T00:57:11.726Z,100751.56
2024-01-28T01:02:20.110Z,100748.38
2024-01-28T01:07:25.626Z,100751.34
2024-01-28T01:12:31.170Z,100752.41
2024-01-28T01:17:39.446Z,100762.25
2024-01-28T01:22:45.557Z,100754.97
2024-01-28T01:27:53.766Z,100755.44
2024-01-28T01:33:01.785Z,100748.53
2024-01-28T01:38:09.612Z,100750.38
2024-01-28T01:43:17.218Z,100748.53
2024-01-28T01:48:28.402Z,100760.44
2024-01-28T01:53:35.977Z,100754.44
2024-01-28T01:58:41.683Z,100750.38
2024-01-28T02:03:49.882Z,100752.31
2024-01-28T02:08:55.280Z,100757.84
2024-01-28T02:14:00.515Z,100761.09
2024-01-28T02:19:08.390Z,100759.19
2024-01-28T02:24:16.638Z,100748.56
2024-01-28T02:29:21.761Z,100749.00
2024-01-28T02:34:27.181Z,100748.41
2024-01-28T02:39:35.389Z,100748.75
2024-01-28T02:44:41.884Z,100749.44
2024-01-28T02:49:49.492Z,100747.94
2024-01-28T02:54:58.296Z,100747.41
2024-01-28T03:00:04.861Z,100744.59
2024-01-28T03:05:13.623Z,100750.66
2024-01-28T03:10:21.815Z,100743.41
2024-01-28T03:15:27.226Z,100750.53
2024-01-28T03:20:32.364Z,100753.16
2024-01-28T03:25:40.145Z,100745.69
2024-01-28T03:30:45.367Z,100754.00
2024-01-28T03:35:50.604Z,100736.75
2024-01-28T03:40:58.764Z,100741.97
2024-01-28T03:46:03.892Z,100742.59
2024-01-28T03:51:10.281Z,100750.38
2024-01-28T03:56:18.039Z,100743.69
2024-01-28T04:01:34.014Z,100743.78
2024-01-28T04:06:45.814Z,100746.69
2024-01-28T04:11:56.294Z,100746.41
2024-01-28T04:17:01.989Z,100745.47
2024-01-28T04:22:07.624Z,100742.84
2024-01-28T04:27:15.526Z,100742.34
2024-01-28T04:32:21.562Z,100726.19
2024-01-28T04:37:27.875Z,100723.91
2024-01-28T04:42:35.696Z,100727.25
2024-01-28T04:47:42.937Z,100728.22
2024-01-28T04:52:48.124Z,100712.66
2024-01-28T04:57:55.876Z,100716.53
2024-01-28T05:03:01.951Z,100709.31
2024-01-28T05:08:10.557Z,100707.72
2024-01-28T05:13:18.710Z,100717.59
2024-01-28T05:18:24.352Z,100709.50
2024-01-28T05:23:32.578Z,100718.88
2024-01-28T05:28:43.307Z,100710.97
2024-01-28T05:33:49.211Z,100712.94
2024-01-28T05:38:55.838Z,100712.09
2024-01-28T05:44:04.001Z,100712.75
2024-01-28T05:49:12.946Z,100723.00
2024-01-28T05:54:19.022Z,100712.53
2024-01-28T05:59:28.849Z,100722.78
2024-01-28T06:04:34.379Z,100709.22
2024-01-28T06:09:45.219Z,100715.00
2024-01-28T06:14:54.427Z,100725.44
2024-01-28T06:20:01.089Z,100726.41
2024-01-28T06:25:06.873Z,100732.88
2024-01-28T06:30:16.579Z,100741.53
2024-01-28T06:35:25.029Z,100745.34
2024-01-28T06:40:34.153Z,100749.75
2024-01-28T06:45:42.577Z,100743.31
2024-01-28T06:50:50.013Z,100741.06
2024-01-28T06:55:57.523Z,100733.78
2024-01-28T07:01:05.760Z,100724.91
2024-01-28T07:06:11.418Z,100713.81
2024-01-28T07:11:19.122Z,100739.84
2024-01-28T07:16:27.104Z,100723.84
2024-01-28T07:21:34.789Z,100726.00
2024-01-28T07:26:43.009Z,100722.94
2024-01-28T07:31:52.581Z,100735.13
2024-01-28T07:36:59.921Z,100734.66
2024-01-28T07:42:07.917Z,100728.47
2024-01-28T07:47:16.230Z,100725.66
2024-01-28T07:52:24.195Z,100733.41
2024-01-28T07:57:32.288Z,100731.03
2024-01-28T08:02:40.363Z,100726.22
2024-01-28T08:07:45.512Z,100726.38
2024-01-28T08:12:55.624Z,100723.56
2024-01-28T08:18:13.017Z,100719.38
2024-01-28T08:23:19.906Z,100717.09
2024-01-28T08:28:28.551Z,100714.75
2024-01-28T09:31:20.362Z,100727.94
2024-01-28T09:36:43.357Z,100725.03
2024-01-28T09:41:58.136Z,100731.00
2024-01-28T09:47:03.813Z,100722.97
2024-01-28T09:52:12.719Z,100719.88
2024-01-28T09:57:22.664Z,100711.16
2024-01-28T10:02:30.685Z,100720.41
2024-01-28T10:07:49.209Z,100723.59
2024-01-28T10:13:01.504Z,100709.59
2024-01-28T10:18:07.644Z,100691.81
2024-01-28T10:23:18.319Z,100676.75
2024-01-28T10:28:29.468Z,100687.22
2024-01-28T10:33:38.048Z,100673.25
2024-01-28T10:38:50.132Z,100663.06
2024-01-28T10:44:01.474Z,100668.06
2024-01-28T10:49:09.514Z,100679.84
2024-01-28T10:54:20.196Z,100672.88
2024-01-28T10:59:28.511Z,100675.84
2024-01-28T11:04:41.176Z,100653.94
2024-01-28T11:09:50.380Z,100646.63
2024-01-28T11:14:56.694Z,100644.41
2024-01-28T11:20:10.513Z,100622.66
2024-01-28T11:25:21.125Z,100615.41
2024-01-28T11:30:28.220Z,100604.72
2024-01-28T11:35:33.998Z,100605.44
2024-01-28T11:40:43.969Z,100603.03
2024-01-28T11:45:49.884Z,100604.53
2024-01-28T11:50:59.359Z,100587.97
2024-01-28T11:56:14.922Z,100577.72
2024-01-28T12:01:20.643Z,100592.34
2024-01-28T12:06:29.100Z,100582.19
2024-01-28T12:11:36.974Z,100582.31
2024-01-28T12:16:42.158Z,100574.47
2024-01-28T12:21:47.426Z,100572.84
2024-01-28T12:26:57.058Z,100561.94
2024-01-28T12:32:05.473Z,100564.88
2024-01-28T12:37:10.543Z,100559.53
2024-01-28T12:42:21.388Z,100556.94
2024-01-28T12:47:28.884Z,100559.59
2024-01-28T12:52:34.897Z,100546.03
2024-01-28T12:57:45.706Z,100550.03
2024-01-28T13:02:50.966Z,100542.88
2024-01-28T13:07:57.570Z,100548.63
2024-01-28T13:13:14.448Z,100541.88
2024-01-28T13:18:30.297Z,100530.00
2024-01-28T13:23:46.434Z,100533.50
2024-01-28T13:28:54.203Z,100529.78
2024-01-28T13:34:02.940Z,100526.09
2024-01-28T13:39:10.257Z,100514.72
2024-01-28T13:44:19.526Z,100524.00
2024-01-28T13:49:25.211Z,100527.53
2024-01-28T13:54:34.580Z,100521.84
2024-01-28T13:59:45.376Z,100527.38
2024-01-28T14:04:56.815Z,100524.72
2024-01-28T14:10:04.683Z,100526.13
2024-01-28T14:15:13.682Z,100520.34
2024-01-28T14:20:19.095Z,100524.50
2024-01-28T14:25:26.903Z,100525.94
2024-01-28T14:30:34.797Z,100510.63
2024-01-28T14:35:39.920Z,100514.34
2024-01-28T14:40:45.306Z,100512.28
2024-01-28T14:45:55.584Z,100510.69
2024-01-28T14:51:01.737Z,100505.09
2024-01-28T14:56:07.627Z,100513.19
2024-01-28T15:01:18.057Z,100516.56
2024-01-28T15:06:26.558Z,100514.31
2024-01-28T15:11:36.150Z,100514.22
2024-01-28T15:16:44.488Z,100520.56
2024-01-28T15:21:49.787Z,100506.06
2024-01-28T15:26:55.178Z,100517.25
2024-01-28T15:32:04.214Z,100514.19
2024-01-28T15:37:09.651Z,100517.53
2024-01-28T15:42:14.881Z,100509.59
2024-01-28T15:47:23.080Z,100500.59
2024-01-28T15:52:28.676Z,100504.41
2024-01-28T15:57:36.223Z,100502.72
2024-01-28T16:02:45.327Z,100505.44
2024-01-28T16:07:50.556Z,100505.06
2024-01-28T16:12:56.544Z,100502.78
2024-01-28T16:18:05.104Z,100515.22
2024-01-28T16:23:13.477Z,100516.03
2024-01-28T16:28:18.631Z,100515.72
2024-01-28T16:33:26.690Z,100514.38
2024-01-28T16:38:33.154Z,100521.38
2024-01-28T16:43:38.207Z,100521.03
2024-01-28T16:48:46.311Z,100516.00
2024-01-28T16:53:51.853Z,100516.31
2024-01-28T16:58:57.263Z,100519.75
2024-01-28T17:04:17.471Z,100497.75
2024-01-28T17:09:23.664Z,100510.81
2024-01-28T17:14:29.280Z,100506.94
2024-01-28T17:19:40.407Z,100498.66
2024-01-28T17:24:46.807Z,100501.56
2024-01-28T17:29:52.232Z,100495.72
2024-01-28T17:35:01.189Z,100494.00
2024-01-28T17:40:09.789Z,100504.91
2024-01-28T17:45:17.413Z,100502.78
2024-01-28T17:50:25.454Z,100497.78
2024-01-28T17:55:32.404Z,100504.66
2024-01-28T18:00:37.768Z,100515.81
2024-01-28T18:05:45.791Z,100520.44
2024-01-28T18:10:50.976Z,100520.13
2024-01-28T18:15:56.792Z,100517.03
2024-01-28T18:21:05.334Z,100519.91
2024-01-28T18:26:12.892Z,100514.72
2024-01-28T18:31:20.889Z,100511.53
2024-01-28T18:36:29.149Z,100521.63
2024-01-28T18:41:34.400Z,100513.91
2024-01-28T18:46:39.980Z,100517.63
2024-01-28T18:51:47.668Z,100520.47
2024-01-28T18:56:52.909Z,100505.78
2024-01-28T19:02:00.075Z,100500.19
2024-01-28T19:07:11.660Z,100509.09
2024-01-28T19:12:23.843Z,100502.00
2024-01-28T19:17:31.135Z,100502.81
2024-01-28T19:22:39.824Z,100505.69
2024-01-28T19:27:51.796Z,100497.78
2024-01-28T19:32:59.966Z,100504.06
2024-01-28T19:38:09.755Z,100501.03
2024-01-28T19:43:20.014Z,100491.38
2024-01-28T19:48:25.536Z,100485.47
2024-01-28T19:53:43.304Z,100486.47
2024-01-28T19:58:51.573Z,100483.81
2024-01-28T20:04:00.954Z,100482.00
2024-01-28T20:09:14.095Z,100482.59
2024-01-28T20:20:05.492Z,100492.56
2024-01-28T20:31:19.617Z,100497.41
2024-01-28T20:53:21.581Z,100482.41
2024-01-28T20:58:40.492Z,100487.28
2024-01-28T21:26:26.171Z,100473.13
2024-01-28T21:31:39.335Z,100461.16
2024-01-28T21:42:26.268Z,100460.59
2024-01-28T21:47:54.774Z,100458.53
2024-01-28T21:53:16.977Z,100452.28
2024-01-28T21:58:27.207Z,100457.50
2024-01-28T22:03:37.000Z,100441.94
2024-01-28T22:08:44.214Z,100440.13
2024-01-28T22:13:50.844Z,100445.56
2024-01-28T22:19:07.227Z,100449.63
2024-01-28T22:24:13.852Z,100449.81
2024-01-28T22:29:22.552Z,100448.41
2024-01-28T22:34:30.938Z,100452.25
2024-01-28T22:39:36.287Z,100464.38
2024-01-28T22:44:43.798Z,100455.44
2024-01-28T22:49:51.825Z,100451.84
2024-01-28T22:54:58.533Z,100446.78
2024-01-28T23:00:05.216Z,100450.81
2024-01-28T23:05:13.526Z,100441.13
2024-01-28T23:10:20.986Z,100433.56
2024-01-28T23:15:26.749Z,100439.56
2024-01-28T23:20:35.568Z,100430.47
2024-01-28T23:25:41.451Z,100407.69
2024-01-28T23:30:46.725Z,100411.13
2024-01-28T23:35:55.008Z,100405.66
2024-01-28T23:41:00.502Z,100415.56
2024-01-28T23:46:05.787Z,100394.94
2024-01-28T23:51:14.291Z,100403.00
2024-01-28T23:56:19.531Z,100399.78
